Wetterstation Vordersexau
Wetterdaten: Woche 05.06.23 - 11.06.23 (KW23)
Datum Zeit Temp. A. Feuchte A. Luftdruck Regen Wind Richtung Taupunkt Windchill Windben
05.06.2023 00:00 14,4 C 84 % 1012,1 hPa 0,0 l/m 0,0 km/h (0 Bft) N 11,7 C 14,4 C 0,0 km/h (0 Bft)
05.06.2023 01:00 14,3 C 78 % 1012,3 hPa 0,0 l/m 0,0 km/h (0 Bft) N 10,5 C 14,3 C 0,0 km/h (0 Bft)
05.06.2023 02:00 14,1 C 76 % 1012,2 hPa 0,0 l/m 0,0 km/h (0 Bft) N 9,9 C 14,1 C 0,0 km/h (0 Bft)
05.06.2023 03:00 12,9 C 80 % 1012,0 hPa 0,0 l/m 0,0 km/h (0 Bft) N 9,5 C 12,9 C 0,0 km/h (0 Bft)
05.06.2023 04:00 10,2 C 87 % 1012,2 hPa 0,0 l/m 0,0 km/h (0 Bft) N 8,1 C 10,2 C 0,0 km/h (0 Bft)
05.06.2023 05:00 10,0 C 87 % 1012,1 hPa 0,0 l/m 0,0 km/h (0 Bft) N 7,9 C 10,0 C 0,0 km/h (0 Bft)
05.06.2023 06:00 8,7 C 90 % 1012,4 hPa 0,0 l/m 0,0 km/h (0 Bft) N 7,2 C 8,7 C 0,0 km/h (0 Bft)
05.06.2023 07:00 9,8 C 88 % 1012,6 hPa 0,0 l/m 0,0 km/h (0 Bft) N 7,9 C 9,8 C 0,0 km/h (0 Bft)
05.06.2023 08:00 12,3 C 84 % 1012,8 hPa 0,0 l/m 0,0 km/h (0 Bft) N 9,7 C 12,3 C 0,0 km/h (0 Bft)
05.06.2023 09:00 14,8 C 75 % 1013,0 hPa 0,0 l/m 0,0 km/h (0 Bft) N 10,4 C 14,8 C 0,0 km/h (0 Bft)
05.06.2023 10:00 17,1 C 65 % 1012,8 hPa 0,0 l/m 0,0 km/h (0 Bft) W 10,5 C 17,1 C 2,5 km/h (1 Bft)
05.06.2023 11:00 19,0 C 66 % 1012,6 hPa 0,0 l/m 6,1 km/h (2 Bft) N-NW 12,5 C 19,0 C 7,2 km/h (2 Bft)
05.06.2023 12:00 21,9 C 54 % 1012,3 hPa 0,0 l/m 1,1 km/h (1 Bft) NW 12,2 C 21,9 C 3,6 km/h (1 Bft)
05.06.2023 13:00 24,2 C 48 % 1011,6 hPa 0,0 l/m 7,2 km/h (2 Bft) N 12,5 C 24,0 C 14,8 km/h (3 Bft)
05.06.2023 14:00 25,3 C 42 % 1011,4 hPa 0,0 l/m 6,1 km/h (2 Bft) NW 11,5 C 25,3 C 13,3 km/h (3 Bft)
05.06.2023 15:00 25,8 C 40 % 1010,8 hPa 0,0 l/m 6,1 km/h (2 Bft) O-NO 11,2 C 25,8 C 9,7 km/h (2 Bft)
05.06.2023 16:00 26,7 C 38 % 1010,2 hPa 0,0 l/m 5,0 km/h (1 Bft) NO 11,2 C 26,7 C 9,7 km/h (2 Bft)
05.06.2023 17:00 27,1 C 40 % 1009,7 hPa 0,0 l/m 3,6 km/h (1 Bft) N-NW 12,3 C 27,1 C 7,2 km/h (2 Bft)
05.06.2023 18:00 26,8 C 44 % 1009,4 hPa 0,0 l/m 2,5 km/h (1 Bft) NW 13,5 C 26,8 C 6,1 km/h (2 Bft)
05.06.2023 19:00 26,0 C 42 % 1009,2 hPa 0,0 l/m 5,0 km/h (1 Bft) N-NO 12,1 C 26,0 C 13,3 km/h (3 Bft)
05.06.2023 20:00 24,9 C 42 % 1009,5 hPa 0,0 l/m 3,6 km/h (1 Bft) O-SO 11,1 C 24,9 C 6,1 km/h (2 Bft)
05.06.2023 21:00 20,6 C 71 % 1009,8 hPa 0,0 l/m 5,0 km/h (1 Bft) SO 15,2 C 20,6 C 7,2 km/h (2 Bft)
05.06.2023 22:00 18,3 C 78 % 1010,2 hPa 0,0 l/m 3,6 km/h (1 Bft) SO 14,4 C 18,3 C 6,1 km/h (2 Bft)
05.06.2023 23:00 16,4 C 83 % 1010,8 hPa 0,0 l/m 1,1 km/h (1 Bft) O-SO 13,5 C 16,4 C 3,6 km/h (1 Bft)
06.06.2023 00:00 15,0 C 86 % 1010,9 hPa 0,0 l/m 2,5 km/h (1 Bft) O-SO 12,7 C 15,0 C 3,6 km/h (1 Bft)
06.06.2023 01:00 14,4 C 86 % 1011,0 hPa 0,0 l/m 1,1 km/h (1 Bft) N 12,1 C 14,4 C 2,5 km/h (1 Bft)
06.06.2023 02:00 13,7 C 84 % 1011,1 hPa 0,0 l/m 0,0 km/h (0 Bft) O-SO 11,0 C 13,7 C 0,0 km/h (0 Bft)
06.06.2023 03:00 11,9 C 86 % 1011,2 hPa 0,0 l/m 1,1 km/h (1 Bft) O-SO 9,6 C 11,9 C 3,6 km/h (1 Bft)
06.06.2023 04:00 12,5 C 81 % 1011,1 hPa 0,0 l/m 2,5 km/h (1 Bft) O-SO 9,3 C 12,5 C 3,6 km/h (1 Bft)
06.06.2023 05:00 11,2 C 86 % 1011,3 hPa 0,0 l/m 1,1 km/h (1 Bft) O-SO 8,9 C 11,2 C 2,5 km/h (1 Bft)
06.06.2023 06:00 11,4 C 83 % 1011,8 hPa 0,0 l/m 2,5 km/h (1 Bft) N 8,6 C 11,4 C 3,6 km/h (1 Bft)
06.06.2023 07:00 11,3 C 85 % 1011,7 hPa 0,0 l/m 0,0 km/h (0 Bft) N 8,9 C 11,3 C 0,0 km/h (0 Bft)
06.06.2023 08:00 13,2 C 78 % 1012,2 hPa 0,0 l/m 0,0 km/h (0 Bft) O-SO 9,4 C 13,2 C 2,5 km/h (1 Bft)
06.06.2023 09:00 15,3 C 76 % 1012,5 hPa 0,0 l/m 1,1 km/h (1 Bft) N 11,1 C 15,3 C 2,5 km/h (1 Bft)
06.06.2023 10:00 18,4 C 68 % 1012,7 hPa 0,0 l/m 0,0 km/h (0 Bft) W-SW 12,4 C 18,4 C 2,5 km/h (1 Bft)
06.06.2023 11:00 20,6 C 67 % 1012,3 hPa 0,0 l/m 1,1 km/h (1 Bft) W-SW 14,3 C 20,6 C 3,6 km/h (1 Bft)
06.06.2023 12:00 22,1 C 57 % 1012,0 hPa 0,0 l/m 3,6 km/h (1 Bft) W 13,2 C 22,1 C 6,1 km/h (2 Bft)
06.06.2023 13:00 24,8 C 61 % 1011,9 hPa 0,0 l/m 3,6 km/h (1 Bft) NO 16,8 C 24,8 C 3,6 km/h (1 Bft)
06.06.2023 14:00 26,3 C 43 % 1011,3 hPa 0,0 l/m 2,5 km/h (1 Bft) NO 12,7 C 26,3 C 3,6 km/h (1 Bft)
06.06.2023 15:00 25,6 C 41 % 1011,2 hPa 0,0 l/m 3,6 km/h (1 Bft) NO 11,4 C 25,6 C 7,2 km/h (2 Bft)
06.06.2023 16:00 25,8 C 42 % 1010,8 hPa 0,0 l/m 2,5 km/h (1 Bft) O 11,9 C 25,8 C 3,6 km/h (1 Bft)
06.06.2023 17:00 26,5 C 39 % 1010,6 hPa 0,0 l/m 1,1 km/h (1 Bft) NO 11,4 C 26,5 C 3,6 km/h (1 Bft)
06.06.2023 18:00 26,7 C 39 % 1010,5 hPa 0,0 l/m 1,1 km/h (1 Bft) W-NW 11,6 C 26,7 C 2,5 km/h (1 Bft)
06.06.2023 19:00 27,1 C 40 % 1010,2 hPa 0,0 l/m 2,5 km/h (1 Bft) NO 12,3 C 27,1 C 6,1 km/h (2 Bft)
06.06.2023 20:00 26,1 C 39 % 1010,3 hPa 0,0 l/m 3,6 km/h (1 Bft) N-NO 11,0 C 26,1 C 6,1 km/h (2 Bft)
06.06.2023 21:00 24,3 C 41 % 1010,5 hPa 0,0 l/m 1,1 km/h (1 Bft) NO 10,2 C 24,3 C 2,5 km/h (1 Bft)
06.06.2023 22:00 20,4 C 55 % 1011,1 hPa 0,0 l/m 1,1 km/h (1 Bft) NO 11,1 C 20,4 C 3,6 km/h (1 Bft)
06.06.2023 23:00 20,6 C 50 % 1011,5 hPa 0,0 l/m 2,5 km/h (1 Bft) N 9,8 C 20,6 C 3,6 km/h (1 Bft)
07.06.2023 00:00 17,0 C 66 % 1011,6 hPa 0,0 l/m 0,0 km/h (0 Bft) N 10,6 C 17,0 C 0,0 km/h (0 Bft)
07.06.2023 01:00 16,6 C 66 % 1012,0 hPa 0,0 l/m 0,0 km/h (0 Bft) O-SO 10,2 C 16,6 C 0,0 km/h (0 Bft)
07.06.2023 02:00 16,6 C 64 % 1011,8 hPa 0,0 l/m 2,5 km/h (1 Bft) N 9,8 C 16,6 C 3,6 km/h (1 Bft)
07.06.2023 03:00 15,7 C 69 % 1011,8 hPa 0,0 l/m 0,0 km/h (0 Bft) N 10,0 C 15,7 C 0,0 km/h (0 Bft)
07.06.2023 04:00 14,9 C 72 % 1011,9 hPa 0,0 l/m 0,0 km/h (0 Bft) O-SO 9,9 C 14,9 C 2,5 km/h (1 Bft)
07.06.2023 05:00 13,7 C 78 % 1012,0 hPa 0,0 l/m 1,1 km/h (1 Bft) N 9,9 C 13,7 C 2,5 km/h (1 Bft)
07.06.2023 06:00 11,8 C 85 % 1012,1 hPa 0,0 l/m 0,0 km/h (0 Bft) N 9,4 C 11,8 C 2,5 km/h (1 Bft)
07.06.2023 07:00 12,3 C 83 % 1012,1 hPa 0,0 l/m 0,0 km/h (0 Bft) N 9,5 C 12,3 C 0,0 km/h (0 Bft)
07.06.2023 08:00 13,8 C 83 % 1012,3 hPa 0,0 l/m 0,0 km/h (0 Bft) NW 11,0 C 13,8 C 0,0 km/h (0 Bft)
07.06.2023 09:00 15,8 C 77 % 1012,6 hPa 0,0 l/m 1,1 km/h (1 Bft) N 11,8 C 15,8 C 2,5 km/h (1 Bft)
07.06.2023 10:00 18,3 C 70 % 1012,7 hPa 0,0 l/m 1,1 km/h (1 Bft) W 12,7 C 18,3 C 3,6 km/h (1 Bft)
07.06.2023 11:00 20,7 C 62 % 1012,6 hPa 0,0 l/m 1,1 km/h (1 Bft) W-SW 13,2 C 20,7 C 3,6 km/h (1 Bft)
07.06.2023 12:00 22,6 C 64 % 1012,5 hPa 0,0 l/m 2,5 km/h (1 Bft) W 15,4 C 22,6 C 3,6 km/h (1 Bft)
07.06.2023 13:00 24,2 C 54 % 1011,8 hPa 0,0 l/m 5,0 km/h (1 Bft) NW 14,3 C 24,2 C 7,2 km/h (2 Bft)
07.06.2023 14:00 25,9 C 45 % 1011,4 hPa 0,0 l/m 6,1 km/h (2 Bft) NW 13,0 C 25,9 C 9,7 km/h (2 Bft)
07.06.2023 15:00 26,9 C 42 % 1010,9 hPa 0,0 l/m 3,6 km/h (1 Bft) NW 12,9 C 26,9 C 7,2 km/h (2 Bft)
07.06.2023 16:00 26,5 C 38 % 1010,2 hPa 0,0 l/m 3,6 km/h (1 Bft) N-NW 11,0 C 26,5 C 11,2 km/h (2 Bft)
07.06.2023 17:00 27,9 C 37 % 1010,0 hPa 0,0 l/m 2,5 km/h (1 Bft) N-NW 11,8 C 27,9 C 6,1 km/h (2 Bft)
07.06.2023 18:00 27,8 C 34 % 1009,4 hPa 0,0 l/m 2,5 km/h (1 Bft) NW 10,5 C 27,8 C 3,6 km/h (1 Bft)
07.06.2023 19:00 27,4 C 36 % 1009,3 hPa 0,0 l/m 2,5 km/h (1 Bft) N-NO 11,0 C 27,4 C 3,6 km/h (1 Bft)
07.06.2023 20:00 25,1 C 42 % 1009,3 hPa 0,0 l/m 5,0 km/h (1 Bft) N 11,3 C 25,1 C 7,2 km/h (2 Bft)
07.06.2023 21:00 24,0 C 45 % 1009,5 hPa 0,0 l/m 0,0 km/h (0 Bft) N-NO 11,3 C 24,0 C 2,5 km/h (1 Bft)
07.06.2023 22:00 20,8 C 61 % 1009,9 hPa 0,0 l/m 1,1 km/h (1 Bft) N-NO 13,0 C 20,8 C 2,5 km/h (1 Bft)
07.06.2023 23:00 18,2 C 66 % 1010,3 hPa 0,0 l/m 1,1 km/h (1 Bft) NO 11,7 C 18,2 C 2,5 km/h (1 Bft)
08.06.2023 00:00 17,2 C 71 % 1010,3 hPa 0,0 l/m 1,1 km/h (1 Bft) NO 11,9 C 17,2 C 2,5 km/h (1 Bft)
08.06.2023 01:00 15,9 C 78 % 1010,6 hPa 0,0 l/m 0,0 km/h (0 Bft) N 12,1 C 15,9 C 2,5 km/h (1 Bft)
08.06.2023 02:00 15,0 C 81 % 1010,3 hPa 0,0 l/m 0,0 km/h (0 Bft) N 11,8 C 15,0 C 2,5 km/h (1 Bft)
08.06.2023 03:00 14,6 C 83 % 1009,9 hPa 0,0 l/m 0,0 km/h (0 Bft) N 11,7 C 14,6 C 0,0 km/h (0 Bft)
08.06.2023 04:00 13,2 C 88 % 1009,6 hPa 0,0 l/m 0,0 km/h (0 Bft) N 11,3 C 13,2 C 0,0 km/h (0 Bft)
08.06.2023 05:00 11,8 C 89 % 1009,6 hPa 0,0 l/m 0,0 km/h (0 Bft) O 10,0 C 11,8 C 0,0 km/h (0 Bft)
08.06.2023 06:00 11,9 C 91 % 1009,6 hPa 0,0 l/m 1,1 km/h (1 Bft) N 10,5 C 11,9 C 2,5 km/h (1 Bft)
08.06.2023 07:00 12,5 C 91 % 1009,8 hPa 0,0 l/m 0,0 km/h (0 Bft) N 11,1 C 12,5 C 0,0 km/h (0 Bft)
08.06.2023 08:00 14,8 C 86 % 1009,9 hPa 0,0 l/m 0,0 km/h (0 Bft) O-SO 12,5 C 14,8 C 2,5 km/h (1 Bft)
08.06.2023 09:00 17,5 C 74 % 1010,0 hPa 0,0 l/m 1,1 km/h (1 Bft) W-SW 12,8 C 17,5 C 2,5 km/h (1 Bft)
08.06.2023 10:00 19,7 C 71 % 1010,2 hPa 0,0 l/m 3,6 km/h (1 Bft) W 14,3 C 19,7 C 6,1 km/h (2 Bft)
08.06.2023 11:00 21,3 C 66 % 1010,0 hPa 0,0 l/m 2,5 km/h (1 Bft) W-SW 14,7 C 21,3 C 6,1 km/h (2 Bft)
08.06.2023 12:00 24,0 C 56 % 1009,4 hPa 0,0 l/m 2,5 km/h (1 Bft) W 14,7 C 24,0 C 3,6 km/h (1 Bft)
08.06.2023 13:00 25,4 C 54 % 1009,1 hPa 0,0 l/m 2,5 km/h (1 Bft) N 15,4 C 25,4 C 3,6 km/h (1 Bft)
08.06.2023 14:00 27,1 C 53 % 1008,3 hPa 0,0 l/m 0,0 km/h (0 Bft) N-NO 16,7 C 27,1 C 2,5 km/h (1 Bft)
08.06.2023 15:00 28,3 C 38 % 1007,8 hPa 0,0 l/m 3,6 km/h (1 Bft) S-SW 12,6 C 28,3 C 6,1 km/h (2 Bft)
08.06.2023 16:00 24,2 C 49 % 1007,9 hPa 0,0 l/m 3,6 km/h (1 Bft) SO 12,8 C 24,2 C 6,1 km/h (2 Bft)
08.06.2023 17:00 26,6 C 46 % 1007,3 hPa 0,0 l/m 2,5 km/h (1 Bft) S-SO 14,0 C 26,6 C 7,2 km/h (2 Bft)
08.06.2023 18:00 26,4 C 44 % 1006,9 hPa 0,0 l/m 3,6 km/h (1 Bft) N 13,1 C 26,4 C 6,1 km/h (2 Bft)
08.06.2023 19:00 27,6 C 35 % 1006,5 hPa 0,0 l/m 0,0 km/h (0 Bft) N 10,7 C 27,6 C 2,5 km/h (1 Bft)
08.06.2023 20:00 25,9 C 43 % 1006,5 hPa 0,0 l/m 0,0 km/h (0 Bft) N 12,3 C 25,9 C 2,5 km/h (1 Bft)
08.06.2023 21:00 23,4 C 56 % 1006,7 hPa 0,0 l/m 1,1 km/h (1 Bft) N 14,1 C 23,4 C 2,5 km/h (1 Bft)
08.06.2023 22:00 21,2 C 57 % 1006,9 hPa 0,0 l/m 0,0 km/h (0 Bft) O-NO 12,3 C 21,2 C 2,5 km/h (1 Bft)
08.06.2023 23:00 18,6 C 70 % 1007,8 hPa 0,0 l/m 3,6 km/h (1 Bft) O-SO 13,0 C 18,6 C 3,6 km/h (1 Bft)
09.06.2023 00:00 18,5 C 70 % 1007,8 hPa 0,0 l/m 1,1 km/h (1 Bft) O-SO 12,9 C 18,5 C 2,5 km/h (1 Bft)
09.06.2023 01:00 17,6 C 68 % 1007,9 hPa 0,0 l/m 0,0 km/h (0 Bft) N 11,6 C 17,6 C 0,0 km/h (0 Bft)
09.06.2023 02:00 16,5 C 72 % 1007,9 hPa 0,0 l/m 0,0 km/h (0 Bft) O 11,4 C 16,5 C 2,5 km/h (1 Bft)
09.06.2023 03:00 15,7 C 75 % 1007,6 hPa 0,0 l/m 1,1 km/h (1 Bft) N 11,3 C 15,7 C 3,6 km/h (1 Bft)
09.06.2023 04:00 14,2 C 79 % 1007,7 hPa 0,0 l/m 0,0 km/h (0 Bft) N 10,6 C 14,2 C 2,5 km/h (1 Bft)
09.06.2023 05:00 13,2 C 85 % 1007,7 hPa 0,0 l/m 0,0 km/h (0 Bft) N 10,7 C 13,2 C 2,5 km/h (1 Bft)
09.06.2023 06:00 13,1 C 85 % 1007,3 hPa 0,0 l/m 0,0 km/h (0 Bft) N 10,6 C 13,1 C 0,0 km/h (0 Bft)
09.06.2023 07:00 11,8 C 91 % 1007,5 hPa 0,0 l/m 0,0 km/h (0 Bft) N 10,4 C 11,8 C 0,0 km/h (0 Bft)
09.06.2023 08:00 14,6 C 84 % 1007,9 hPa 0,0 l/m 0,0 km/h (0 Bft) N 11,9 C 14,6 C 0,0 km/h (0 Bft)
09.06.2023 09:00 16,6 C 77 % 1008,1 hPa 0,0 l/m 0,0 km/h (0 Bft) W-SW 12,5 C 16,6 C 2,5 km/h (1 Bft)
09.06.2023 10:00 19,5 C 70 % 1008,3 hPa 0,0 l/m 1,1 km/h (1 Bft) W-SW 13,9 C 19,5 C 2,5 km/h (1 Bft)
09.06.2023 11:00 21,7 C 66 % 1008,0 hPa 0,0 l/m 1,1 km/h (1 Bft) W 15,1 C 21,7 C 3,6 km/h (1 Bft)
09.06.2023 12:00 23,5 C 58 % 1007,6 hPa 0,0 l/m 3,6 km/h (1 Bft) NW 14,7 C 23,5 C 6,1 km/h (2 Bft)
09.06.2023 13:00 26,0 C 57 % 1007,3 hPa 0,0 l/m 1,1 km/h (1 Bft) O-SO 16,8 C 26,0 C 2,5 km/h (1 Bft)
09.06.2023 14:00 27,3 C 52 % 1006,6 hPa 0,0 l/m 3,6 km/h (1 Bft) SW 16,6 C 27,3 C 7,2 km/h (2 Bft)
09.06.2023 15:00 29,2 C 50 % 1006,0 hPa 0,0 l/m 2,5 km/h (1 Bft) NO 17,7 C 29,2 C 3,6 km/h (1 Bft)
09.06.2023 16:00 30,2 C 39 % 1005,6 hPa 0,0 l/m 1,1 km/h (1 Bft) NO 14,7 C 30,2 C 3,6 km/h (1 Bft)
09.06.2023 17:00 29,6 C 39 % 1005,1 hPa 0,0 l/m 6,1 km/h (2 Bft) N 14,2 C 29,6 C 11,2 km/h (2 Bft)
09.06.2023 18:00 29,5 C 36 % 1004,6 hPa 0,0 l/m 3,6 km/h (1 Bft) O-NO 12,8 C 29,5 C 6,1 km/h (2 Bft)
09.06.2023 19:00 29,1 C 37 % 1004,4 hPa 0,0 l/m 2,5 km/h (1 Bft) N-NO 12,9 C 29,1 C 6,1 km/h (2 Bft)
09.06.2023 20:00 28,1 C 40 % 1004,7 hPa 0,0 l/m 1,1 km/h (1 Bft) NO 13,2 C 28,1 C 3,6 km/h (1 Bft)
09.06.2023 21:00 26,1 C 45 % 1005,0 hPa 0,0 l/m 3,6 km/h (1 Bft) N 13,2 C 26,1 C 9,7 km/h (2 Bft)
09.06.2023 22:00 24,6 C 48 % 1005,6 hPa 0,0 l/m 0,0 km/h (0 Bft) O-SO 12,8 C 24,6 C 2,5 km/h (1 Bft)
09.06.2023 23:00 22,5 C 55 % 1006,4 hPa 0,0 l/m 2,5 km/h (1 Bft) N-NO 13,0 C 22,5 C 3,6 km/h (1 Bft)
10.06.2023 00:00 22,6 C 53 % 1006,6 hPa 0,0 l/m 2,5 km/h (1 Bft) N-NO 12,5 C 22,6 C 3,6 km/h (1 Bft)
10.06.2023 01:00 20,1 C 62 % 1006,5 hPa 0,0 l/m 0,0 km/h (0 Bft) N 12,6 C 20,1 C 0,0 km/h (0 Bft)
10.06.2023 02:00 17,8 C 72 % 1006,8 hPa 0,0 l/m 0,0 km/h (0 Bft) W 12,7 C 17,8 C 0,0 km/h (0 Bft)
10.06.2023 03:00 16,6 C 77 % 1007,1 hPa 0,0 l/m 2,5 km/h (1 Bft) N 12,5 C 16,6 C 3,6 km/h (1 Bft)
10.06.2023 04:00 15,7 C 77 % 1007,2 hPa 0,0 l/m 0,0 km/h (0 Bft) N 11,7 C 15,7 C 0,0 km/h (0 Bft)
10.06.2023 05:00 14,8 C 81 % 1007,4 hPa 0,0 l/m 0,0 km/h (0 Bft) N 11,6 C 14,8 C 0,0 km/h (0 Bft)
10.06.2023 06:00 14,5 C 82 % 1007,9 hPa 0,0 l/m 0,0 km/h (0 Bft) NO 11,5 C 14,5 C 0,0 km/h (0 Bft)
10.06.2023 07:00 14,5 C 83 % 1008,0 hPa 0,0 l/m 1,1 km/h (1 Bft) N 11,6 C 14,5 C 2,5 km/h (1 Bft)
10.06.2023 08:00 16,6 C 79 % 1008,7 hPa 0,0 l/m 0,0 km/h (0 Bft) N 12,9 C 16,6 C 0,0 km/h (0 Bft)
10.06.2023 09:00 19,7 C 70 % 1008,4 hPa 0,0 l/m 0,0 km/h (0 Bft) N 14,1 C 19,7 C 2,5 km/h (1 Bft)
10.06.2023 10:00 21,5 C 69 % 1008,4 hPa 0,0 l/m 0,0 km/h (0 Bft) W-NW 15,6 C 21,5 C 2,5 km/h (1 Bft)
10.06.2023 11:00 23,7 C 64 % 1008,5 hPa 0,0 l/m 1,1 km/h (1 Bft) W-NW 16,5 C 23,7 C 3,6 km/h (1 Bft)
10.06.2023 12:00 25,1 C 64 % 1008,1 hPa 0,0 l/m 2,5 km/h (1 Bft) W 17,8 C 25,1 C 3,6 km/h (1 Bft)
10.06.2023 13:00 27,2 C 54 % 1007,8 hPa 0,0 l/m 6,1 km/h (2 Bft) N-NO 17,1 C 27,2 C 9,7 km/h (2 Bft)
10.06.2023 14:00 28,5 C 46 % 1007,6 hPa 0,0 l/m 6,1 km/h (2 Bft) W 15,7 C 28,5 C 7,2 km/h (2 Bft)
10.06.2023 15:00 27,7 C 46 % 1007,1 hPa 0,0 l/m 6,1 km/h (2 Bft) SO 15,0 C 27,7 C 7,2 km/h (2 Bft)
10.06.2023 16:00 27,7 C 45 % 1006,8 hPa 0,0 l/m 3,6 km/h (1 Bft) W-SW 14,7 C 27,7 C 6,1 km/h (2 Bft)
10.06.2023 17:00 26,5 C 54 % 1006,5 hPa 0,0 l/m 3,6 km/h (1 Bft) N 16,4 C 26,5 C 6,1 km/h (2 Bft)
10.06.2023 18:00 25,3 C 59 % 1006,4 hPa 0,0 l/m 0,0 km/h (0 Bft) N 16,7 C 25,3 C 0,0 km/h (0 Bft)
10.06.2023 19:00 27,3 C 59 % 1006,1 hPa 0,0 l/m 0,0 km/h (0 Bft) W 18,6 C 27,3 C 0,0 km/h (0 Bft)
10.06.2023 20:00 27,4 C 57 % 1006,2 hPa 0,0 l/m 2,5 km/h (1 Bft) N 18,1 C 27,4 C 2,5 km/h (1 Bft)
10.06.2023 21:00 25,4 C 55 % 1006,4 hPa 0,0 l/m 1,1 km/h (1 Bft) N-NO 15,7 C 25,4 C 3,6 km/h (1 Bft)
10.06.2023 22:00 24,3 C 54 % 1007,3 hPa 0,0 l/m 2,5 km/h (1 Bft) N 14,4 C 24,3 C 3,6 km/h (1 Bft)
10.06.2023 23:00 20,5 C 71 % 1007,9 hPa 0,0 l/m 0,0 km/h (0 Bft) O 15,1 C 20,5 C 0,0 km/h (0 Bft)
11.06.2023 00:00 19,9 C 70 % 1008,5 hPa 0,0 l/m 2,5 km/h (1 Bft) O 14,3 C 19,9 C 3,6 km/h (1 Bft)
11.06.2023 01:00 17,7 C 78 % 1008,5 hPa 0,0 l/m 0,0 km/h (0 Bft) N 13,8 C 17,7 C 2,5 km/h (1 Bft)
11.06.2023 02:00 17,8 C 78 % 1008,6 hPa 0,0 l/m 0,0 km/h (0 Bft) S-SO 13,9 C 17,8 C 2,5 km/h (1 Bft)
11.06.2023 03:00 16,7 C 81 % 1008,9 hPa 0,0 l/m 2,5 km/h (1 Bft) O-SO 13,4 C 16,7 C 2,5 km/h (1 Bft)
11.06.2023 04:00 16,3 C 83 % 1008,9 hPa 0,0 l/m 1,1 km/h (1 Bft) N 13,4 C 16,3 C 2,5 km/h (1 Bft)
11.06.2023 05:00 15,7 C 84 % 1009,0 hPa 0,0 l/m 0,0 km/h (0 Bft) O-NO 13,0 C 15,7 C 2,5 km/h (1 Bft)
11.06.2023 06:00 15,1 C 86 % 1009,0 hPa 0,0 l/m 2,5 km/h (1 Bft) N 12,8 C 15,1 C 6,1 km/h (2 Bft)
11.06.2023 07:00 15,8 C 85 % 1009,4 hPa 0,0 l/m 0,0 km/h (0 Bft) SO 13,3 C 15,8 C 2,5 km/h (1 Bft)
11.06.2023 08:00 18,5 C 79 % 1009,6 hPa 0,0 l/m 2,5 km/h (1 Bft) W-SW 14,8 C 18,5 C 3,6 km/h (1 Bft)
11.06.2023 09:00 21,0 C 70 % 1009,9 hPa 0,0 l/m 1,1 km/h (1 Bft) N 15,3 C 21,0 C 2,5 km/h (1 Bft)
11.06.2023 10:00 23,5 C 63 % 1009,8 hPa 0,0 l/m 0,0 km/h (0 Bft) W-NW 16,0 C 23,5 C 2,5 km/h (1 Bft)
11.06.2023 11:00 25,4 C 57 % 1009,8 hPa 0,0 l/m 5,0 km/h (1 Bft) W-NW 16,2 C 25,4 C 9,7 km/h (2 Bft)
11.06.2023 12:00 26,1 C 55 % 1009,4 hPa 0,0 l/m 3,6 km/h (1 Bft) SW 16,3 C 26,1 C 7,2 km/h (2 Bft)
11.06.2023 13:00 28,1 C 52 % 1009,1 hPa 0,0 l/m 1,1 km/h (1 Bft) NO 17,3 C 28,1 C 3,6 km/h (1 Bft)
11.06.2023 14:00 27,6 C 46 % 1008,9 hPa 0,0 l/m 1,1 km/h (1 Bft) SO 14,9 C 27,6 C 3,6 km/h (1 Bft)
11.06.2023 15:00 29,4 C 43 % 1008,5 hPa 0,0 l/m 3,6 km/h (1 Bft) N 15,5 C 29,4 C 11,2 km/h (2 Bft)
11.06.2023 16:00 29,4 C 41 % 1008,0 hPa 0,0 l/m 2,5 km/h (1 Bft) O-NO 14,7 C 29,4 C 6,1 km/h (2 Bft)
11.06.2023 17:00 29,6 C 40 % 1007,4 hPa 0,0 l/m 2,5 km/h (1 Bft) N-NO 14,5 C 29,6 C 3,6 km/h (1 Bft)
11.06.2023 18:00 30,2 C 37 % 1007,1 hPa 0,0 l/m 1,1 km/h (1 Bft) N-NO 13,9 C 30,2 C 2,5 km/h (1 Bft)
11.06.2023 19:00 29,7 C 38 % 1007,1 hPa 0,0 l/m 3,6 km/h (1 Bft) N-NO 13,8 C 29,7 C 7,2 km/h (2 Bft)
11.06.2023 20:00 28,1 C 39 % 1007,2 hPa 0,0 l/m 3,6 km/h (1 Bft) NO 12,8 C 28,1 C 6,1 km/h (2 Bft)
11.06.2023 21:00 26,3 C 42 % 1007,7 hPa 0,0 l/m 2,5 km/h (1 Bft) N-NO 12,3 C 26,3 C 3,6 km/h (1 Bft)
11.06.2023 22:00 25,2 C 41 % 1007,8 hPa 0,0 l/m 2,5 km/h (1 Bft) O 11,0 C 25,2 C 3,6 km/h (1 Bft)
11.06.2023 23:00 24,1 C 44 % 1008,5 hPa 0,0 l/m 1,1 km/h (1 Bft) N 11,1 C 24,1 C 3,6 km/h (1 Bft)
Min-Datum _ 05.06.23 07.06.23 09.06.23 - 05.06.23 - 05.06.23 05.06.23 05.06.23
_ Min-Zeit 06:21 18:21 19:21 - 00:21 - 06:21 06:21 00:21
Minimum _ 8,7 C 34 % 1004,4 hPa - 0,0 km/h (0 Bft) - 7,2 C 8,7 C 0,0 km/h (0 Bft)
Max-Datum _ 09.06.23 08.06.23 05.06.23 05.06.23 05.06.23 - 10.06.23 09.06.23 05.06.23
_ Max-Zeit 16:21 06:21 09:21 00:21 13:21 - 19:21 16:21 13:21
Maximum _ 30,2 C 91 % 1013,0 hPa 0,0 l/m 7,2 km/h
N (2 Bft)
- 18,6 C 30,2 C 14,8 km/h
N (3 Bft)
Durchschnitt _ 20,7 C 63 % 1009,4 hPa #0,0 l/m 1,8 km/h (1 Bft) NO 12,6 C 20,7 C 3,7 km/h (1 Bft)
www.sexauwetter.de